createdAt,value
2019-04-10T00:01:07.821Z,102169.55
2019-04-10T00:03:39.099Z,102178.41
2019-04-10T00:06:08.766Z,102176.77
2019-04-10T00:08:38.659Z,102172.80
2019-04-10T00:11:08.270Z,102179.09
2019-04-10T00:13:38.529Z,102174.31
2019-04-10T00:16:07.959Z,102176.17
2019-04-10T00:18:38.000Z,102179.89
2019-04-10T00:21:07.650Z,102183.55
2019-04-10T00:23:37.373Z,102180.69
2019-04-10T00:26:07.678Z,102182.11
2019-04-10T00:28:37.432Z,102197.65
2019-04-10T00:31:07.367Z,102193.33
2019-04-10T00:33:36.984Z,102213.28
2019-04-10T00:36:07.733Z,102203.73
2019-04-10T00:38:37.960Z,102212.16
2019-04-10T00:41:08.032Z,102209.33
2019-04-10T00:43:37.861Z,102208.94
2019-04-10T00:46:08.148Z,102212.05
2019-04-10T00:48:37.755Z,102213.67
2019-04-10T00:51:07.473Z,102215.44
2019-04-10T00:53:37.201Z,102239.48
2019-04-10T00:56:06.660Z,102218.27
2019-04-10T00:58:37.451Z,102218.38
2019-04-10T01:01:07.791Z,102219.66
2019-04-10T01:03:43.937Z,102219.50
2019-04-10T01:06:13.847Z,102220.47
2019-04-10T01:08:43.286Z,102225.88
2019-04-10T01:11:13.034Z,102221.02
2019-04-10T01:13:43.146Z,102230.10
2019-04-10T01:16:13.329Z,102224.41
2019-04-10T01:18:43.579Z,102228.47
2019-04-10T01:21:13.130Z,102230.10
2019-04-10T01:23:42.614Z,102226.50
2019-04-10T01:26:12.745Z,102228.86
2019-04-10T01:28:42.390Z,102228.62
2019-04-10T01:31:12.909Z,102218.25
2019-04-10T01:33:43.046Z,102225.70
2019-04-10T01:36:13.082Z,102229.36
2019-04-10T01:38:42.590Z,102221.17
2019-04-10T01:41:12.367Z,102226.77
2019-04-10T01:43:42.114Z,102226.70
2019-04-10T01:46:11.640Z,102233.34
2019-04-10T01:48:41.865Z,102235.77
2019-04-10T01:51:11.660Z,102236.67
2019-04-10T01:53:42.168Z,102230.75
2019-04-10T01:56:22.955Z,102236.91
2019-04-10T01:58:45.424Z,102243.08
2019-04-10T02:01:24.628Z,102243.49
2019-04-10T02:03:54.368Z,102247.78
2019-04-10T02:06:23.991Z,102244.52
2019-04-10T02:08:54.227Z,102248.75
2019-04-10T02:11:24.057Z,102244.52
2019-04-10T02:13:54.073Z,102244.52
2019-04-10T02:16:24.530Z,102247.27
2019-04-10T02:18:55.187Z,102249.87
2019-04-10T02:21:25.487Z,102243.08
2019-04-10T02:23:55.036Z,102251.89
2019-04-10T02:26:25.557Z,102253.93
2019-04-10T02:28:55.517Z,102248.91
2019-04-10T02:31:26.399Z,102254.11
2019-04-10T02:33:59.059Z,102251.44
2019-04-10T02:36:31.059Z,102252.98
2019-04-10T02:39:13.976Z,102254.91
2019-04-10T02:41:32.335Z,102257.67
2019-04-10T02:44:03.102Z,102253.77
2019-04-10T02:46:34.031Z,102255.33
2019-04-10T02:49:04.248Z,102254.27
2019-04-10T02:51:35.079Z,102256.70
2019-04-10T02:54:05.711Z,102260.42
2019-04-10T02:56:36.539Z,102261.23
2019-04-10T02:59:07.383Z,102265.55
2019-04-10T03:01:37.975Z,102257.76
2019-04-10T03:04:09.746Z,102256.62
2019-04-10T03:06:39.727Z,102267.06
2019-04-10T03:09:28.942Z,102263.67
2019-04-10T03:11:42.016Z,102266.42
2019-04-10T03:14:12.602Z,102265.92
2019-04-10T03:16:42.124Z,102264.30
2019-04-10T03:19:11.703Z,102261.70
2019-04-10T03:21:41.519Z,102269.59
2019-04-10T03:24:11.812Z,102270.31
2019-04-10T03:26:41.597Z,102265.13
2019-04-10T03:29:11.632Z,102266.83
2019-04-10T03:31:41.715Z,102274.52
2019-04-10T03:34:28.460Z,102279.14
2019-04-10T03:36:57.967Z,102278.42
2019-04-10T03:39:27.853Z,102278.28
2019-04-10T03:41:57.285Z,102282.95
2019-04-10T03:44:27.124Z,102283.59
2019-04-10T03:46:56.830Z,102276.30
2019-04-10T03:49:26.354Z,102288.00
2019-04-10T03:51:56.712Z,102284.27
2019-04-10T03:54:26.395Z,102282.02
2019-04-10T03:56:56.239Z,102279.56
2019-04-10T03:59:26.380Z,102282.02
2019-04-10T04:01:56.058Z,102287.05
2019-04-10T04:04:25.846Z,102286.20
2019-04-10T04:06:55.785Z,102299.86
2019-04-10T04:09:25.628Z,102289.15
2019-04-10T04:11:55.836Z,102293.86
2019-04-10T04:14:25.470Z,102290.77
2019-04-10T04:16:55.606Z,102285.58
2019-04-10T04:19:26.140Z,102296.14
2019-04-10T04:21:56.395Z,102299.88
2019-04-10T04:24:26.622Z,102308.31
2019-04-10T04:26:57.230Z,102308.22
2019-04-10T04:29:27.071Z,102307.32
2019-04-10T04:31:56.880Z,102307.83
2019-04-10T04:34:27.201Z,102309.94
2019-04-10T04:36:56.858Z,102307.01
2019-04-10T04:39:28.366Z,102310.08
2019-04-10T04:41:58.807Z,102313.97
2019-04-10T04:44:29.208Z,102313.20
2019-04-10T04:46:59.187Z,102317.10
2019-04-10T04:49:28.765Z,102310.61
2019-04-10T04:51:58.659Z,102318.88
2019-04-10T04:54:28.896Z,102316.05
2019-04-10T04:56:58.469Z,102318.54
2019-04-10T04:59:28.933Z,102315.94
2019-04-10T05:01:58.510Z,102326.50
2019-04-10T05:04:28.022Z,102330.38
2019-04-10T05:06:57.901Z,102326.02
2019-04-10T05:09:34.362Z,102338.34
2019-04-10T05:11:58.669Z,102334.95
2019-04-10T05:14:29.466Z,102337.39
2019-04-10T05:16:59.546Z,102328.13
2019-04-10T05:19:29.747Z,102330.72
2019-04-10T05:21:59.539Z,102341.12
2019-04-10T05:24:30.029Z,102350.05
2019-04-10T05:27:01.284Z,102338.13
2019-04-10T05:29:31.357Z,102342.33
2019-04-10T05:32:01.210Z,102350.20
2019-04-10T05:34:30.899Z,102338.50
2019-04-10T05:37:00.396Z,102356.35
2019-04-10T05:39:39.728Z,102351.67
2019-04-10T05:42:02.450Z,102346.30
2019-04-10T05:44:32.453Z,102356.35
2019-04-10T05:47:03.279Z,102354.41
2019-04-10T05:49:33.201Z,102358.00
2019-04-10T05:52:02.790Z,102353.13
2019-04-10T05:54:33.323Z,102349.70
2019-04-10T05:57:04.089Z,102352.41
2019-04-10T05:59:34.292Z,102348.49
2019-04-10T06:02:05.108Z,102364.55
2019-04-10T06:04:35.748Z,102362.53
2019-04-10T06:07:05.507Z,102361.16
2019-04-10T06:09:34.976Z,102375.67
2019-04-10T06:12:05.804Z,102379.88
2019-04-10T06:14:35.849Z,102375.36
2019-04-10T06:17:05.984Z,102371.64
2019-04-10T06:19:36.415Z,102370.79
2019-04-10T06:22:06.235Z,102372.98
2019-04-10T06:24:36.387Z,102376.33
2019-04-10T06:27:05.989Z,102386.84
2019-04-10T06:29:35.694Z,102381.01
2019-04-10T06:32:05.353Z,102379.36
2019-04-10T06:34:34.818Z,102380.98
2019-04-10T06:37:06.134Z,102388.16
2019-04-10T06:39:35.784Z,102390.09
2019-04-10T06:42:06.501Z,102382.78
2019-04-10T06:44:36.445Z,102390.72
2019-04-10T06:47:06.427Z,102380.43
2019-04-10T06:49:36.566Z,102381.83
2019-04-10T06:52:06.298Z,102385.59
2019-04-10T06:54:36.448Z,102390.56
2019-04-10T06:57:06.349Z,102388.77
2019-04-10T06:59:36.166Z,102393.45
2019-04-10T07:02:16.607Z,102387.80
2019-04-10T07:04:46.900Z,102382.78
2019-04-10T07:07:12.366Z,102367.38
2019-04-10T07:09:40.179Z,102400.95
2019-04-10T07:12:10.111Z,102392.55
2019-04-10T07:14:44.007Z,102377.97
2019-04-10T07:17:13.856Z,102387.31
2019-04-10T07:19:44.012Z,102384.33
2019-04-10T07:22:14.728Z,102386.28
2019-04-10T07:24:46.049Z,102379.75
2019-04-10T07:27:16.087Z,102389.66
2019-04-10T07:29:48.826Z,102381.39
2019-04-10T07:32:18.294Z,102391.78
2019-04-10T07:34:48.721Z,102378.28
2019-04-10T07:37:21.692Z,102387.09
2019-04-10T07:39:50.881Z,102389.19
2019-04-10T07:42:28.620Z,102380.91
2019-04-10T07:44:51.831Z,102373.75
2019-04-10T07:47:22.106Z,102380.59
2019-04-10T07:49:52.525Z,102386.08
2019-04-10T07:52:22.927Z,102381.67
2019-04-10T07:54:54.566Z,102385.23
2019-04-10T07:57:24.503Z,102401.52
2019-04-10T07:59:54.614Z,102395.85
2019-04-10T08:02:25.532Z,102389.84
2019-04-10T08:04:55.934Z,102397.88
2019-04-10T08:07:30.412Z,102397.95
2019-04-10T08:09:56.720Z,102399.42
2019-04-10T08:12:38.465Z,102399.42
2019-04-10T08:14:57.636Z,102397.48
2019-04-10T08:17:28.281Z,102393.59
2019-04-10T08:19:57.988Z,102390.88
2019-04-10T08:22:28.601Z,102399.44
2019-04-10T08:24:58.681Z,102408.12
2019-04-10T08:27:28.217Z,102399.94
2019-04-10T08:29:57.758Z,102402.61
2019-04-10T08:32:27.857Z,102400.39
2019-04-10T08:34:58.231Z,102402.52
2019-04-10T08:37:28.322Z,102398.78
2019-04-10T08:39:59.060Z,102396.48
2019-04-10T08:42:28.912Z,102396.82
2019-04-10T08:44:58.375Z,102409.52
2019-04-10T08:47:28.320Z,102402.69
2019-04-10T08:49:57.930Z,102404.45
2019-04-10T08:52:28.326Z,102407.05
2019-04-10T08:54:58.160Z,102399.42
2019-04-10T08:57:27.865Z,102410.79
2019-04-10T08:59:58.312Z,102219.72
2019-04-10T09:02:28.365Z,102405.12
2019-04-10T09:04:59.502Z,102404.45
2019-04-10T09:07:30.382Z,102408.52
2019-04-10T09:10:01.982Z,102401.69
2019-04-10T09:12:31.720Z,102409.32
2019-04-10T09:15:01.670Z,102398.05
2019-04-10T09:17:31.499Z,102407.55
2019-04-10T09:20:02.563Z,102418.68
2019-04-10T09:22:44.518Z,102416.98
2019-04-10T09:25:03.686Z,102423.78
2019-04-10T09:27:33.726Z,102413.65
2019-04-10T09:30:04.533Z,102405.52
2019-04-10T09:32:34.715Z,102415.02
2019-04-10T09:35:04.498Z,102409.16
2019-04-10T09:37:34.495Z,102414.52
2019-04-10T09:40:04.311Z,102418.09
2019-04-10T09:42:33.834Z,102422.82
2019-04-10T09:45:03.342Z,102417.69
2019-04-10T09:47:33.041Z,102416.16
2019-04-10T09:50:02.516Z,102419.25
2019-04-10T09:52:32.129Z,102413.86
2019-04-10T09:55:03.098Z,102413.05
2019-04-10T09:57:32.603Z,102400.67
2019-04-10T10:00:03.160Z,102410.73
2019-04-10T10:02:33.712Z,102413.17
2019-04-10T10:05:04.252Z,102409.27
2019-04-10T10:07:34.806Z,102406.37
2019-04-10T10:10:04.947Z,102416.91
2019-04-10T10:12:34.408Z,102405.70
2019-04-10T10:15:05.061Z,102406.37
2019-04-10T10:17:34.914Z,102413.33
2019-04-10T10:20:06.452Z,102412.31
2019-04-10T10:22:37.028Z,102415.59
2019-04-10T10:25:07.364Z,102408.23
2019-04-10T10:27:36.955Z,102410.71
2019-04-10T10:30:07.237Z,102415.97
2019-04-10T10:32:37.216Z,102420.89
2019-04-10T10:35:07.233Z,102247.23
2019-04-10T10:37:36.708Z,102415.17
2019-04-10T10:40:08.334Z,102417.93
2019-04-10T10:42:39.640Z,102414.20
2019-04-10T10:45:10.603Z,102414.08
2019-04-10T10:47:40.531Z,102427.84
2019-04-10T10:50:10.443Z,102427.90
2019-04-10T10:52:40.071Z,102428.80
2019-04-10T10:55:09.871Z,102427.09
2019-04-10T10:57:39.708Z,102429.98
2019-04-10T11:00:12.809Z,102437.28
2019-04-10T11:02:41.563Z,102426.26
2019-04-10T11:05:11.366Z,102421.67
2019-04-10T11:07:40.944Z,102429.02
2019-04-10T11:10:10.729Z,102434.06
2019-04-10T11:12:40.518Z,102416.16
2019-04-10T11:15:12.292Z,102435.88
2019-04-10T11:17:42.229Z,102431.48
2019-04-10T11:20:12.846Z,102430.66
2019-04-10T11:22:43.134Z,102429.59
2019-04-10T11:25:13.561Z,102429.63
2019-04-10T11:27:43.119Z,102422.72
2019-04-10T11:30:13.681Z,102427.31
2019-04-10T11:32:44.476Z,102436.33
2019-04-10T11:35:15.547Z,102432.05
2019-04-10T11:37:48.329Z,102430.63
2019-04-10T11:40:18.092Z,102433.97
2019-04-10T11:42:47.789Z,102440.86
2019-04-10T11:45:19.047Z,102431.55
2019-04-10T11:47:51.222Z,102426.70
2019-04-10T11:50:21.794Z,102428.66
2019-04-10T11:52:53.332Z,102431.36
2019-04-10T11:55:26.994Z,102428.87
2019-04-10T11:57:55.374Z,102443.32
2019-04-10T12:00:47.789Z,102435.78
2019-04-10T12:03:12.673Z,102429.13
2019-04-10T12:05:42.883Z,102432.98
2019-04-10T12:08:49.807Z,102430.55
2019-04-10T12:13:16.974Z,102429.05
2019-04-10T12:15:46.366Z,102431.25
2019-04-10T12:18:16.183Z,102431.16
2019-04-10T12:20:45.807Z,102429.19
2019-04-10T12:23:15.292Z,102430.95
2019-04-10T12:25:45.068Z,102427.34
2019-04-10T12:28:15.803Z,102430.70
2019-04-10T12:30:45.778Z,102427.24
2019-04-10T12:33:15.429Z,102430.41
2019-04-10T12:35:45.763Z,102427.40
2019-04-10T12:38:15.269Z,102434.41
2019-04-10T12:40:46.704Z,102432.97
2019-04-10T12:43:16.768Z,102426.30
2019-04-10T12:45:46.586Z,102432.06
2019-04-10T12:48:16.720Z,102431.46
2019-04-10T12:50:47.457Z,102428.85
2019-04-10T12:53:17.281Z,102431.16
2019-04-10T12:55:46.803Z,102431.86
2019-04-10T12:58:18.948Z,102433.37
2019-04-10T13:00:48.142Z,102431.56
2019-04-10T13:03:18.739Z,102431.72
2019-04-10T13:05:49.346Z,102431.37
2019-04-10T13:08:23.680Z,102433.05
2019-04-10T13:10:50.343Z,102436.78
2019-04-10T13:13:20.029Z,102431.45
2019-04-10T13:15:49.841Z,102443.05
2019-04-10T13:18:20.503Z,102431.66
2019-04-10T13:20:50.340Z,102437.57
2019-04-10T13:23:20.455Z,102425.14
2019-04-10T13:25:58.830Z,102435.42
2019-04-10T13:28:21.521Z,102432.06
2019-04-10T13:30:53.823Z,102435.86
2019-04-10T13:33:22.641Z,102432.41
2019-04-10T13:35:53.329Z,102432.61
2019-04-10T13:38:30.939Z,102431.66
2019-04-10T13:40:56.354Z,102431.55
2019-04-10T13:43:26.201Z,102429.14
2019-04-10T13:45:56.284Z,102428.23
2019-04-10T13:48:26.041Z,102432.61
2019-04-10T13:50:57.023Z,102424.66
2019-04-10T13:53:26.684Z,102421.34
2019-04-10T13:55:56.918Z,102424.80
2019-04-10T13:58:28.821Z,102428.64
2019-04-10T14:00:58.792Z,102435.27
2019-04-10T14:03:28.679Z,102437.41
2019-04-10T14:05:58.321Z,102436.25
2019-04-10T14:08:48.330Z,102429.94
2019-04-10T14:11:00.561Z,102434.39
2019-04-10T14:13:31.610Z,102437.80
2019-04-10T14:16:01.733Z,102440.48
2019-04-10T14:18:31.359Z,102439.66
2019-04-10T14:21:03.318Z,102440.84
2019-04-10T14:23:33.273Z,102452.80
2019-04-10T14:26:39.925Z,102443.31
2019-04-10T14:28:59.641Z,102448.46
2019-04-10T14:31:32.218Z,102451.67
2019-04-10T14:34:03.492Z,102450.58
2019-04-10T14:36:33.468Z,102457.91
2019-04-10T14:39:11.050Z,102457.09
2019-04-10T14:41:34.404Z,102458.48
2019-04-10T14:44:04.169Z,102462.11
2019-04-10T14:46:33.747Z,102452.77
2019-04-10T14:49:03.326Z,102454.39
2019-04-10T14:51:32.911Z,102458.84
2019-04-10T14:54:03.665Z,102445.78
2019-04-10T14:56:35.357Z,102454.77
2019-04-10T14:59:05.419Z,102456.01
2019-04-10T15:01:35.907Z,102456.01
2019-04-10T15:04:05.646Z,102457.22
2019-04-10T15:06:35.659Z,102452.97
2019-04-10T15:09:20.083Z,102453.32
2019-04-10T15:11:40.614Z,102453.18
2019-04-10T15:14:11.025Z,102454.41
2019-04-10T15:16:41.120Z,102460.06
2019-04-10T15:19:12.165Z,102462.67
2019-04-10T15:21:41.701Z,102458.69
2019-04-10T15:24:11.307Z,102458.41
2019-04-10T15:26:40.919Z,102455.73
2019-04-10T15:29:10.428Z,102460.59
2019-04-10T15:31:40.125Z,102459.39
2019-04-10T15:34:09.869Z,102463.70
2019-04-10T15:36:40.175Z,102467.61
2019-04-10T15:39:10.641Z,102469.13
2019-04-10T15:41:41.315Z,102466.73
2019-04-10T15:44:11.984Z,102472.86
2019-04-10T15:46:41.621Z,102471.95
2019-04-10T15:49:11.145Z,102473.33
2019-04-10T15:51:41.382Z,102471.27
2019-04-10T15:54:11.754Z,102468.98
2019-04-10T15:56:42.316Z,102476.96
2019-04-10T15:59:12.221Z,102475.16
2019-04-10T16:01:41.735Z,102474.64
2019-04-10T16:04:11.574Z,102480.38
2019-04-10T16:06:41.791Z,102481.00
2019-04-10T16:09:12.680Z,102479.64
2019-04-10T16:11:52.392Z,102472.02
2019-04-10T16:14:25.601Z,102487.27
2019-04-10T16:17:19.252Z,102482.33
2019-04-10T16:19:56.395Z,102482.05
2019-04-10T16:22:33.379Z,102483.56
2019-04-10T16:25:05.948Z,102486.84
2019-04-10T16:27:35.676Z,102489.95
2019-04-10T16:30:08.191Z,102497.42
2019-04-10T16:32:37.927Z,102493.44
2019-04-10T16:35:07.581Z,102489.54
2019-04-10T16:37:37.655Z,102501.55
2019-04-10T16:40:10.007Z,102490.28
2019-04-10T16:42:41.359Z,102498.55
2019-04-10T16:45:11.653Z,102489.20
2019-04-10T16:47:41.991Z,102491.39
2019-04-10T16:50:11.731Z,102486.91
2019-04-10T16:52:41.358Z,102484.05
2019-04-10T16:55:13.118Z,102485.77
2019-04-10T16:57:43.192Z,102494.55
2019-04-10T17:00:15.294Z,102485.30
2019-04-10T17:02:44.507Z,102488.52
2019-04-10T17:05:14.530Z,102480.26
2019-04-10T17:07:44.020Z,102487.42
2019-04-10T17:10:20.522Z,102485.16
2019-04-10T17:12:46.842Z,102487.13
2019-04-10T17:15:17.751Z,102488.30
2019-04-10T17:17:47.661Z,102489.89
2019-04-10T17:20:17.575Z,102493.45
2019-04-10T17:22:49.345Z,102490.44
2019-04-10T17:25:20.156Z,102494.34
2019-04-10T17:27:50.076Z,102496.46
2019-04-10T17:30:20.038Z,102495.77
2019-04-10T17:32:49.595Z,102499.48
2019-04-10T17:35:19.475Z,102503.67
2019-04-10T17:37:49.924Z,102504.28
2019-04-10T17:40:30.094Z,102507.29
2019-04-10T17:42:52.580Z,102514.06
2019-04-10T17:45:22.986Z,102514.61
2019-04-10T17:47:54.610Z,102510.70
2019-04-10T17:50:24.813Z,102515.27
2019-04-10T17:52:54.900Z,102515.80
2019-04-10T17:55:25.316Z,102518.06
2019-04-10T17:57:57.476Z,102522.52
2019-04-10T18:00:35.552Z,102522.23
2019-04-10T18:03:05.558Z,102525.78
2019-04-10T18:05:35.237Z,102527.73
2019-04-10T18:08:05.231Z,102528.92
2019-04-10T18:10:46.428Z,102533.17
2019-04-10T18:13:06.319Z,102521.75
2019-04-10T18:15:36.235Z,102531.52
2019-04-10T18:18:05.751Z,102536.31
2019-04-10T18:20:35.946Z,102532.05
2019-04-10T18:23:05.721Z,102538.91
2019-04-10T18:25:36.174Z,102541.15
2019-04-10T18:28:06.114Z,102548.56
2019-04-10T18:30:37.058Z,102547.54
2019-04-10T18:33:07.312Z,102554.06
2019-04-10T18:35:37.092Z,102560.41
2019-04-10T18:38:07.079Z,102563.20
2019-04-10T18:40:37.132Z,102564.39
2019-04-10T18:43:07.704Z,102568.59
2019-04-10T18:45:37.931Z,102568.94
2019-04-10T18:48:10.260Z,102573.53
2019-04-10T18:50:40.542Z,102567.64
2019-04-10T18:53:10.953Z,102568.48
2019-04-10T18:55:40.678Z,102578.56
2019-04-10T18:58:15.735Z,102588.04
2019-04-10T19:01:23.088Z,102579.59
2019-04-10T19:04:20.971Z,102587.70
2019-04-10T19:06:56.542Z,102589.56
2019-04-10T19:09:28.859Z,102596.30
2019-04-10T19:12:00.257Z,102596.98
2019-04-10T19:14:30.476Z,102608.77
2019-04-10T19:17:00.479Z,102609.69
2019-04-10T19:19:30.261Z,102614.11
2019-04-10T19:22:00.179Z,102613.15
2019-04-10T19:24:30.521Z,102612.52
2019-04-10T19:27:00.245Z,102618.62
2019-04-10T19:29:31.797Z,102617.05
2019-04-10T19:32:04.886Z,102620.67
2019-04-10T19:34:34.779Z,102441.69
2019-04-10T19:37:04.625Z,102621.97
2019-04-10T19:39:34.345Z,102621.80
2019-04-10T19:42:05.340Z,102619.20
2019-04-10T19:44:35.212Z,102624.67
2019-04-10T19:47:08.260Z,102633.05
2019-04-10T19:49:38.781Z,102623.14
2019-04-10T19:52:09.229Z,102629.81
2019-04-10T19:54:38.856Z,102627.54
2019-04-10T19:57:09.009Z,102632.41
2019-04-10T19:59:39.797Z,102637.77
2019-04-10T20:02:10.788Z,102639.00
2019-04-10T20:04:40.971Z,102640.86
2019-04-10T20:07:11.154Z,102651.42
2019-04-10T20:09:41.038Z,102643.95
2019-04-10T20:12:10.735Z,102644.89
2019-04-10T20:14:40.877Z,102642.12
2019-04-10T20:17:11.562Z,102646.11
2019-04-10T20:19:41.100Z,102644.23
2019-04-10T20:22:10.792Z,102652.36
2019-04-10T20:24:40.947Z,102647.31
2019-04-10T20:27:10.536Z,102648.94
2019-04-10T20:29:41.310Z,102649.73
2019-04-10T20:32:12.614Z,102653.95
2019-04-10T20:34:43.376Z,102656.38
2019-04-10T20:37:13.103Z,102659.70
2019-04-10T20:39:43.292Z,102661.51
2019-04-10T20:42:13.942Z,102663.39
2019-04-10T20:44:44.933Z,102672.96
2019-04-10T20:47:15.688Z,102664.19
2019-04-10T20:49:45.420Z,102673.76
2019-04-10T20:52:14.987Z,102673.91
2019-04-10T20:54:44.819Z,102674.55
2019-04-10T20:57:15.106Z,102678.41
2019-04-10T20:59:44.705Z,102676.84
2019-04-10T21:02:14.277Z,102681.62
2019-04-10T21:04:54.562Z,102680.45
2019-04-10T21:07:15.294Z,102688.58
2019-04-10T21:09:45.094Z,102687.92
2019-04-10T21:12:18.085Z,102695.53
2019-04-10T21:14:46.309Z,102695.53
2019-04-10T21:17:16.420Z,102693.77
2019-04-10T21:19:46.030Z,102697.34
2019-04-10T21:22:15.897Z,102699.75
2019-04-10T21:24:45.595Z,102705.32
2019-04-10T21:27:15.107Z,102707.46
2019-04-10T21:29:59.216Z,102708.63
2019-04-10T21:32:42.780Z,102711.56
2019-04-10T21:35:15.881Z,102716.30
2019-04-10T21:37:46.573Z,102710.30
2019-04-10T21:40:16.624Z,102712.26
2019-04-10T21:42:46.036Z,102716.34
2019-04-10T21:45:15.950Z,102719.27
2019-04-10T21:47:46.076Z,102725.40
2019-04-10T21:50:17.107Z,102727.53
2019-04-10T21:52:47.660Z,102733.80
2019-04-10T21:55:17.207Z,102731.47
2019-04-10T21:57:46.893Z,102726.14
2019-04-10T22:00:20.402Z,102729.58
2019-04-10T22:02:50.139Z,102736.02
2019-04-10T22:05:19.952Z,102742.48
2019-04-10T22:08:10.180Z,102743.72
2019-04-10T22:10:44.179Z,102569.17
2019-04-10T22:13:13.781Z,102742.86
2019-04-10T22:15:45.044Z,102739.80
2019-04-10T22:18:14.887Z,102744.01
2019-04-10T22:20:46.093Z,102741.25
2019-04-10T22:23:16.066Z,102567.73
2019-04-10T22:25:45.916Z,102750.19
2019-04-10T22:28:17.011Z,102748.89
2019-04-10T22:30:46.568Z,102747.59
2019-04-10T22:33:16.143Z,102746.02
2019-04-10T22:35:46.285Z,102749.83
2019-04-10T22:38:17.299Z,102744.63
2019-04-10T22:40:48.284Z,102745.33
2019-04-10T22:43:18.189Z,102741.12
2019-04-10T22:45:48.652Z,102742.73
2019-04-10T22:48:18.882Z,102747.55
2019-04-10T22:50:49.272Z,102748.17
2019-04-10T22:53:19.327Z,102753.96
2019-04-10T22:55:49.095Z,102751.13
2019-04-10T22:58:19.155Z,102756.70
2019-04-10T23:00:48.731Z,102764.18
2019-04-10T23:03:18.398Z,102761.90
2019-04-10T23:05:48.942Z,102755.33
2019-04-10T23:08:19.752Z,102764.73
2019-04-10T23:10:51.118Z,102761.16
2019-04-10T23:13:21.585Z,102761.75
2019-04-10T23:15:51.483Z,102764.06
2019-04-10T23:18:21.410Z,102760.88
2019-04-10T23:20:51.918Z,102768.44
2019-04-10T23:23:23.055Z,102767.84
2019-04-10T23:25:54.980Z,102780.05
2019-04-10T23:28:25.318Z,102773.31
2019-04-10T23:30:54.821Z,102780.79
2019-04-10T23:33:24.265Z,102782.91
2019-04-10T23:35:53.881Z,102777.41
2019-04-10T23:38:23.645Z,102782.00
2019-04-10T23:40:53.513Z,102779.24
2019-04-10T23:43:24.233Z,102778.42
2019-04-10T23:45:53.947Z,102778.92
2019-04-10T23:48:24.536Z,102775.46
2019-04-10T23:50:54.530Z,102776.25
2019-04-10T23:53:24.593Z,102782.06
2019-04-10T23:55:54.474Z,102788.04
2019-04-10T23:58:24.413Z,102777.45
